Time;durP1;ratioP1;P1;durP2;ratioP2;P2;SDS_P1;SDS_P2;PMS_P1;PMS_P2;Temp;Humidity;BMP_temperature;BMP_pressure;BME280_temperature;BME280_humidity;BME280_pressure;Samples;Min_cycle;Max_cycle;Signal;HPM_P1;HPM_P2
2023/03/13 00:01:04;;;;;;;7.07;1.23;;;;;;;7.08;100.00;92536.88;2059425;28;20034;-84
2023/03/13 00:02:28;;;;;;;8.60;1.63;;;;;;;7.41;100.00;92537.00;2040221;29;20091;-85
2023/03/13 00:04:10;;;;;;;6.05;1.40;;;;;;;7.16;100.00;92516.97;2027615;29;20068;-83
2023/03/13 00:05:40;;;;;;;19.85;1.95;;;;;;;7.19;100.00;92523.38;2034112;29;20489;-85
2023/03/13 00:07:18;;;;;;;6.57;1.15;;;;;;;7.02;100.00;92531.28;2018404;29;20088;-83
2023/03/13 00:08:40;;;;;;;4.60;1.27;;;;;;;7.26;100.00;92539.19;2021319;29;20032;-84
2023/03/13 00:10:31;;;;;;;8.35;1.67;;;;;;;7.24;100.00;92536.94;2010666;29;20041;-84
2023/03/13 00:11:38;;;;;;;;;;;;;;;7.14;100.00;92534.47;2017444;29;20081;-83
2023/03/13 00:12:48;;;;;;;4.65;1.20;;;;;;;7.16;100.00;92534.84;2011439;29;20586;-84
2023/03/13 00:16:07;;;;;;;9.68;1.05;;;;;;;7.18;100.00;92535.16;2135290;23;20337;-84
2023/03/13 00:17:34;;;;;;;11.68;1.23;;;;;;;7.02;100.00;92535.81;2077205;28;20034;-83
2023/03/13 00:19:20;;;;;;;8.32;1.60;;;;;;;7.23;100.00;92532.03;2060686;28;20039;-85
2023/03/13 00:21:08;;;;;;;6.82;1.75;;;;;;;7.37;100.00;92538.97;2049623;28;20038;-83
2023/03/13 00:22:21;;;;;;;10.10;1.83;;;;;;;7.20;100.00;92538.94;2043591;29;20079;-83
2023/03/13 00:23:35;;;;;;;5.57;1.30;;;;;;;7.13;100.00;92536.38;2058167;28;20023;-82
2023/03/13 00:25:38;;;;;;;9.43;1.30;;;;;;;7.11;100.00;92544.00;2083428;28;20010;-83
2023/03/13 00:26:48;;;;;;;8.00;1.48;;;;;;;7.02;100.00;92547.22;2044881;28;20039;-84
2023/03/13 00:28:09;;;;;;;7.95;1.20;;;;;;;7.48;100.00;92534.97;2071737;28;20040;-83
2023/03/13 00:29:47;;;;;;;7.70;1.10;;;;;;;7.36;100.00;92532.91;2067713;28;20069;-83
2023/03/13 00:31:11;;;;;;;6.50;1.10;;;;;;;7.25;100.00;92545.69;2064350;28;20145;-85
2023/03/13 00:33:11;;;;;;;6.90;1.40;;;;;;;7.19;100.00;92532.09;2027737;29;20135;-84
2023/03/13 00:34:48;;;;;;;8.00;1.15;;;;;;;7.32;100.00;92540.22;2044475;29;20118;-83
2023/03/13 00:36:25;;;;;;;6.55;1.63;;;;;;;7.29;100.00;92533.06;2038397;29;20042;-82
2023/03/13 00:37:48;;;;;;;7.10;1.27;;;;;;;7.31;100.00;92523.50;2020742;29;20043;-83
2023/03/13 00:39:12;;;;;;;6.68;1.00;;;;;;;7.36;100.00;92532.16;2021398;29;20040;-83
2023/03/13 00:40:45;;;;;;;5.72;1.20;;;;;;;7.37;100.00;92539.72;2041421;29;20059;-85
2023/03/13 00:42:14;;;;;;;5.85;1.45;;;;;;;7.45;100.00;92533.13;2041221;29;20031;-85
2023/03/13 00:43:35;;;;;;;6.00;1.38;;;;;;;7.43;100.00;92532.03;2066355;28;20116;-83
2023/03/13 00:44:35;;;;;;;4.90;1.10;;;;;;;7.37;100.00;92529.09;2064532;28;20022;-84
2023/03/13 00:45:42;;;;;;;8.10;1.35;;;;;;;7.25;100.00;92533.13;2073872;28;20478;-86
2023/03/13 00:47:06;;;;;;;7.72;1.30;;;;;;;7.35;100.00;92526.09;2064010;28;20870;-84
2023/03/13 00:48:43;;;;;;;8.75;1.35;;;;;;;7.31;100.00;92530.75;2070060;28;20128;-84
2023/03/13 00:50:28;;;;;;;6.72;1.55;;;;;;;7.22;100.00;92538.50;2074569;28;20029;-83
2023/03/13 00:51:52;;;;;;;5.07;1.30;;;;;;;7.46;100.00;92533.88;2081312;28;20022;-82
2023/03/13 00:53:20;;;;;;;7.80;1.00;;;;;;;7.42;100.00;92535.84;2064604;28;20038;-84
2023/03/13 00:55:01;;;;;;;7.93;1.63;;;;;;;7.53;100.00;92531.81;2056882;28;20094;-83
2023/03/13 00:59:15;;;;;;;5.57;1.13;;;;;;;7.48;100.00;92527.00;2054663;28;20034;-83
2023/03/13 01:00:25;;;;;;;4.38;1.20;;;;;;;7.56;100.00;92523.03;2032222;29;20801;-83
2023/03/13 01:02:22;;;;;;;4.93;1.30;;;;;;;7.55;100.00;92528.75;2027233;29;20394;-85
2023/03/13 01:03:26;;;;;;;3.60;1.00;;;;;;;7.68;100.00;92520.91;2047299;28;20039;-83
2023/03/13 01:05:07;;;;;;;4.80;1.00;;;;;;;7.48;100.00;92523.59;2041807;29;20111;-84
2023/03/13 01:07:52;;;;;;;6.53;1.10;;;;;;;7.52;100.00;92522.34;2028434;29;20037;-84
2023/03/13 01:09:32;;;;;;;11.05;1.90;;;;;;;7.37;100.00;92523.78;2017257;29;20043;-85
2023/03/13 01:11:06;;;;;;;4.82;1.50;;;;;;;7.59;100.00;92513.47;2015185;29;20033;-84
2023/03/13 01:13:16;;;;;;;7.20;1.20;;;;;;;7.98;100.00;92515.31;2012512;29;20072;-83
2023/03/13 01:14:55;;;;;;;3.20;0.90;;;;;;;7.67;100.00;92525.47;2025416;29;20040;-84
2023/03/13 01:17:01;;;;;;;7.80;1.27;;;;;;;7.80;100.00;92523.69;2027395;29;20139;-84
2023/03/13 01:18:14;;;;;;;3.22;0.85;;;;;;;7.73;100.00;92520.44;2010230;29;20044;-84
2023/03/13 01:20:30;;;;;;;8.70;1.55;;;;;;;7.73;100.00;92512.44;2021978;29;20036;-85
2023/03/13 01:21:46;;;;;;;7.70;1.13;;;;;;;7.85;100.00;92519.78;1995518;29;20102;-85
2023/03/13 01:23:04;;;;;;;3.95;0.95;;;;;;;7.70;100.00;92515.94;2021031;29;20116;-84
2023/03/13 01:24:19;;;;;;;6.43;1.35;;;;;;;7.74;100.00;92512.03;2046086;28;20040;-84
2023/03/13 01:25:51;;;;;;;7.68;1.23;;;;;;;7.88;100.00;92510.97;2061595;28;20035;-84
2023/03/13 01:27:14;;;;;;;4.90;0.90;;;;;;;7.84;100.00;92507.63;2064248;28;20026;-84
2023/03/13 01:28:34;;;;;;;6.07;0.90;;;;;;;7.98;100.00;92512.66;2065715;28;20124;-84
2023/03/13 01:30:11;;;;;;;5.88;1.05;;;;;;;7.93;100.00;92507.81;2060850;28;20041;-83
2023/03/13 01:31:42;;;;;;;3.30;1.10;;;;;;;7.75;100.00;92494.16;2055792;28;20026;-84
2023/03/13 01:32:55;;;;;;;4.93;0.80;;;;;;;7.73;100.00;92507.88;2045269;28;20054;-84
2023/03/13 01:34:17;;;;;;;8.10;0.98;;;;;;;8.22;100.00;92501.88;2064942;28;20058;-84
2023/03/13 01:35:50;;;;;;;;;;;;;;;;;;;;;
2023/03/13 01:37:10;;;;;;;7.40;1.08;;;;;;;7.88;100.00;92494.25;2076862;28;20025;-83
2023/03/13 01:38:24;;;;;;;3.50;0.90;;;;;;;7.91;100.00;92490.78;2057443;28;20038;-83
2023/03/13 01:39:47;;;;;;;3.83;1.05;;;;;;;8.27;100.00;92488.06;2048151;28;20034;-86
2023/03/13 01:41:13;;;;;;;6.82;1.25;;;;;;;8.14;100.00;92498.63;2063499;28;20106;-83
2023/03/13 01:42:28;;;;;;;4.55;1.02;;;;;;;8.24;100.00;92489.63;2058712;28;20048;-84
2023/03/13 01:47:09;;;;;;;1.95;0.77;;;;;;;8.27;100.00;92506.72;2069857;28;20565;-85
2023/03/13 01:48:10;;;;;;;6.80;1.40;;;;;;;8.31;100.00;92499.38;2059641;28;20026;-85
2023/03/13 01:49:32;;;;;;;2.75;1.00;;;;;;;8.49;100.00;92496.34;2050195;28;20023;-83
2023/03/13 01:51:04;;;;;;;3.83;1.00;;;;;;;8.20;100.00;92493.53;2061872;28;20021;-84
2023/03/13 01:52:30;;;;;;;2.35;0.70;;;;;;;8.41;100.00;92495.00;2061295;28;20069;-85
2023/03/13 01:54:13;;;;;;;3.53;0.82;;;;;;;8.28;100.00;92494.88;2065423;28;20021;-84
2023/03/13 01:55:16;;;;;;;8.20;0.80;;;;;;;8.35;100.00;92501.97;2060632;28;20018;-83
2023/03/13 01:56:21;;;;;;;2.13;0.80;;;;;;;8.26;100.00;92499.88;2054238;28;20023;-83
2023/03/13 01:57:54;;;;;;;3.67;0.77;;;;;;;8.45;100.00;92499.06;2050226;28;20408;-84
2023/03/13 01:59:35;;;;;;;2.45;0.82;;;;;;;8.24;100.00;92502.94;2035816;29;20044;-82
2023/03/13 02:01:28;;;;;;;1.48;0.75;;;;;;;8.43;100.00;92505.97;2047646;29;20393;-85
2023/03/13 02:03:13;;;;;;;2.85;0.82;;;;;;;8.16;100.00;92495.53;2028390;29;20130;-85
2023/03/13 02:04:51;;;;;;;4.65;0.70;;;;;;;8.08;100.00;92497.63;2024709;29;20046;-84
2023/03/13 02:06:53;;;;;;;2.47;0.70;;;;;;;8.35;100.00;92500.06;2017288;29;20097;-83
2023/03/13 02:08:57;;;;;;;3.05;0.93;;;;;;;8.44;100.00;92489.59;2026505;29;20045;-85
2023/03/13 02:10:25;;;;;;;4.05;0.85;;;;;;;8.14;100.00;92480.00;2002238;29;20427;-84
2023/03/13 02:12:09;;;;;;;4.22;0.80;;;;;;;8.33;100.00;92478.41;1997199;29;20551;-84
2023/03/13 02:13:30;;;;;;;3.40;0.93;;;;;;;8.05;100.00;92469.19;2015545;29;20028;-85
2023/03/13 02:15:09;;;;;;;5.50;0.70;;;;;;;7.83;100.00;92463.59;2042018;29;20518;-83
2023/03/13 02:16:36;;;;;;;1.85;0.73;;;;;;;7.80;100.00;92459.81;2039442;28;20076;-83
2023/03/13 02:33:59;;;;;;;2.58;1.27;;;;;;;7.61;100.00;92449.25;2593547;22;20008;-83
2023/03/13 02:40:05;;;;;;;1.95;0.90;;;;;;;7.48;100.00;92436.59;2442068;24;20020;-83
2023/03/13 02:42:06;;;;;;;1.70;0.52;;;;;;;7.42;100.00;92438.25;2432775;24;20009;-83
2023/03/13 02:43:37;;;;;;;1.30;0.65;;;;;;;7.47;100.00;92437.00;2398535;24;20015;-83
2023/03/13 02:47:28;;;;;;;2.30;0.80;;;;;;;7.55;100.00;92430.34;2344156;25;20096;-84
2023/03/13 02:48:56;;;;;;;2.38;0.90;;;;;;;7.44;100.00;92427.94;2350434;25;20535;-84
2023/03/13 02:50:06;;;;;;;2.45;0.55;;;;;;;7.55;100.00;92438.31;2351156;25;20358;-85
2023/03/13 02:51:35;;;;;;;;;;;;;;;7.52;100.00;92431.19;2397000;24;20010;-83
2023/03/13 02:53:06;;;;;;;2.47;0.50;;;;;;;7.42;100.00;92426.84;2482487;23;19914;-83
2023/03/13 02:54:46;;;;;;;;;;;;;;;7.34;100.00;92420.94;2477471;24;20461;-84
2023/03/13 02:56:49;;;;;;;2.70;0.80;;;;;;;7.46;100.00;92425.63;2460739;24;19910;-83
2023/03/13 02:58:50;;;;;;;2.40;0.63;;;;;;;7.33;100.00;92411.44;2480715;23;20021;-83
2023/03/13 03:03:01;;;;;;;1.15;0.50;;;;;;;7.63;100.00;92407.00;2442388;24;20013;-83
2023/03/13 03:04:47;;;;;;;2.38;0.60;;;;;;;7.56;100.00;92397.28;2442350;24;20501;-82
2023/03/13 03:06:17;;;;;;;1.50;0.60;;;;;;;7.80;100.00;92390.66;2443750;23;20016;-82
2023/03/13 03:08:29;;;;;;;0.73;0.43;;;;;;;7.57;100.00;92399.53;2479344;23;20011;-82
2023/03/13 03:09:40;;;;;;;3.05;0.57;;;;;;;7.42;100.00;92393.03;2486085;24;19996;-82
2023/03/13 03:11:08;;;;;;;2.25;0.60;;;;;;;7.56;100.00;92402.63;2472754;24;19997;-84
2023/03/13 03:15:04;;;;;;;0.80;0.60;;;;;;;7.34;100.00;92402.31;2426339;24;20034;-84
2023/03/13 03:16:46;;;;;;;2.33;0.70;;;;;;;7.43;100.00;92407.81;2423469;24;20169;-83
2023/03/13 03:17:56;;;;;;;3.10;0.90;;;;;;;7.25;100.00;92410.84;2455107;24;20449;-84
2023/03/13 03:19:41;;;;;;;1.83;0.88;;;;;;;6.95;100.00;92416.41;2450471;24;20013;-83
2023/03/13 03:20:53;;;;;;;2.65;0.90;;;;;;;7.09;100.00;92412.72;2471579;24;20016;-83
2023/03/13 03:22:24;;;;;;;4.38;1.10;;;;;;;6.88;100.00;92405.91;2466203;24;20190;-83
2023/03/13 03:23:38;;;;;;;3.28;1.30;;;;;;;6.70;100.00;92407.00;2459581;24;20016;-83
2023/03/13 03:29:37;;;;;;;2.40;0.95;;;;;;;6.59;100.00;92393.19;2475854;24;20474;-84
2023/03/13 03:32:50;;;;;;;2.88;0.80;;;;;;;6.57;100.00;92395.47;2437774;24;20017;-84
2023/03/13 03:34:45;;;;;;;3.00;1.00;;;;;;;6.59;100.00;92401.16;2417533;24;20772;-83
2023/03/13 03:36:21;;;;;;;3.38;0.85;;;;;;;6.57;100.00;92395.47;2419142;24;20057;-82
2023/03/13 03:37:34;;;;;;;2.20;0.80;;;;;;;6.61;100.00;92395.41;2401641;24;20011;-83
2023/03/13 03:38:57;;;;;;;2.63;0.90;;;;;;;6.73;100.00;92394.81;2412041;24;20014;-85
2023/03/13 03:40:11;;;;;;;1.33;0.60;;;;;;;6.87;100.00;92391.13;2425042;24;20455;-84
2023/03/13 03:41:41;;;;;;;2.13;1.05;;;;;;;6.80;100.00;92382.16;2412431;24;20021;-84
2023/03/13 03:42:51;;;;;;;4.07;0.60;;;;;;;6.81;100.00;92382.91;2408355;24;20459;-84
2023/03/13 03:44:05;;;;;;;1.73;0.60;;;;;;;6.88;100.00;92387.31;2422739;24;20466;-83
2023/03/13 03:45:12;;;;;;;2.08;0.70;;;;;;;6.95;100.00;92379.22;2479687;23;20019;-84
2023/03/13 03:46:42;;;;;;;2.55;0.60;;;;;;;6.96;100.00;92375.38;2455610;24;20012;-84
2023/03/13 03:48:31;;;;;;;1.05;0.60;;;;;;;7.02;100.00;92374.50;2451290;24;20020;-83
2023/03/13 03:49:36;;;;;;;2.95;0.88;;;;;;;7.10;100.00;92379.66;2426297;24;20483;-84
2023/03/13 03:51:01;;;;;;;2.40;0.60;;;;;;;7.07;100.00;92392.63;2406975;24;20019;-83
2023/03/13 03:52:12;;;;;;;3.38;1.00;;;;;;;6.93;100.00;92395.53;2408169;24;20011;-83
2023/03/13 03:53:19;;;;;;;2.03;1.00;;;;;;;6.95;100.00;92400.47;2443424;24;20028;-85
2023/03/13 03:54:49;;;;;;;3.65;1.13;;;;;;;6.80;100.00;92395.44;2453791;24;20009;-83
2023/03/13 03:56:03;;;;;;;;;;;;;;;6.73;100.00;92398.22;2489512;23;20011;-85
2023/03/13 03:57:15;;;;;;;1.95;0.85;;;;;;;6.65;100.00;92396.84;2497036;23;19978;-84
2023/03/13 03:58:28;;;;;;;2.28;1.10;;;;;;;6.60;100.00;92392.00;2483266;23;20022;-84
2023/03/13 04:00:20;;;;;;;2.50;1.23;;;;;;;6.48;100.00;92397.91;2487679;23;20012;-84
2023/03/13 04:01:35;;;;;;;4.78;1.30;;;;;;;6.41;100.00;92392.72;2443032;24;20407;-84
2023/03/13 04:02:56;;;;;;;3.63;1.20;;;;;;;6.29;100.00;92397.50;2467230;23;20012;-83
2023/03/13 04:04:04;;;;;;;3.70;1.55;;;;;;;6.26;100.00;92392.97;2476635;23;20008;-83
2023/03/13 04:05:29;;;;;;;6.32;1.15;;;;;;;6.29;100.00;92392.19;2473541;24;20352;-83
2023/03/13 04:06:37;;;;;;;2.22;1.02;;;;;;;6.31;100.00;92389.84;2468988;24;20008;-83
2023/03/13 04:07:51;;;;;;;3.00;1.10;;;;;;;6.33;100.00;92402.75;2450718;24;20491;-83
2023/03/13 04:11:52;;;;;;;;;;;;;;;;;;;;;
2023/03/13 04:13:29;;;;;;;3.17;1.23;;;;;;;6.17;100.00;92389.38;2453299;24;19907;-84
2023/03/13 04:14:37;;;;;;;2.80;1.00;;;;;;;6.23;100.00;92385.06;2450221;24;20033;-84
2023/03/13 04:15:57;;;;;;;3.45;1.80;;;;;;;6.21;100.00;92374.88;2526026;23;20441;-82
2023/03/13 04:17:16;;;;;;;8.38;5.72;;;;;;;6.17;100.00;92366.22;2521388;23;20013;-83
2023/03/13 04:18:33;;;;;;;7.00;4.18;;;;;;;6.33;100.00;92373.53;2513453;23;20006;-83
2023/03/13 04:20:13;;;;;;;;;;;;;;;;;;;;;
2023/03/13 04:28:07;;;;;;;2.53;1.40;;;;;;;6.23;100.00;92369.16;2533009;23;19998;-83
2023/03/13 04:29:18;;;;;;;3.15;1.42;;;;;;;6.24;100.00;92368.78;2527034;23;20341;-83
2023/03/13 04:30:45;;;;;;;1.98;1.10;;;;;;;6.17;100.00;92366.22;2484816;23;20395;-84
2023/03/13 04:32:00;;;;;;;4.07;1.60;;;;;;;6.21;100.00;92364.25;2473616;24;20360;-84
2023/03/13 04:33:53;;;;;;;2.35;1.60;;;;;;;6.18;100.00;92366.97;2487198;23;20059;-84
2023/03/13 04:35:11;;;;;;;3.10;1.50;;;;;;;6.38;100.00;92361.72;2485422;23;20022;-84
2023/03/13 04:36:13;;;;;;;3.72;1.73;;;;;;;6.33;100.00;92364.84;2514431;23;20010;-84
2023/03/13 04:37:15;;;;;;;2.45;1.55;;;;;;;6.43;100.00;92358.59;2508330;23;20007;-83
2023/03/13 04:38:34;;;;;;;4.72;2.08;;;;;;;6.26;100.00;92355.84;2509096;23;20010;-83
2023/03/13 04:39:56;;;;;;;4.78;2.35;;;;;;;6.45;100.00;92364.22;2516421;23;20454;-83
2023/03/13 04:41:32;;;;;;;6.15;1.98;;;;;;;6.30;100.00;92369.78;2509036;23;20585;-82
2023/03/13 04:43:18;;;;;;;;;;;;;;;;;;;;;
2023/03/13 04:44:33;;;;;;;4.88;3.40;;;;;;;6.11;100.00;92359.91;2508630;23;20015;-85
2023/03/13 04:46:05;;;;;;;2.63;1.92;;;;;;;6.08;100.00;92354.66;2484959;23;20034;-85
2023/03/13 04:47:17;;;;;;;3.88;1.90;;;;;;;6.04;100.00;92352.06;2485213;23;20014;-83
2023/03/13 04:48:48;;;;;;;3.90;1.90;;;;;;;6.08;100.00;92359.97;2490882;23;20371;-83
2023/03/13 04:50:24;;;;;;;3.92;1.50;;;;;;;6.17;100.00;92365.47;2479332;23;20008;-82
2023/03/13 04:51:39;;;;;;;3.25;1.50;;;;;;;6.07;100.00;92361.88;2487123;23;20477;-83
2023/03/13 04:52:51;;;;;;;2.22;1.00;;;;;;;6.04;100.00;92355.47;2489583;23;20011;-85
2023/03/13 04:54:11;;;;;;;2.40;1.10;;;;;;;5.98;100.00;92359.75;2484417;23;20386;-83
2023/03/13 04:55:49;;;;;;;2.00;1.10;;;;;;;5.94;100.00;92361.69;2462483;24;20068;-84
2023/03/13 04:57:06;;;;;;;3.30;1.23;;;;;;;5.92;100.00;92358.69;2486476;23;20011;-83
2023/03/13 04:58:17;;;;;;;5.60;1.63;;;;;;;6.01;100.00;92368.78;2485951;23;20048;-84
2023/03/13 04:59:56;;;;;;;2.03;1.10;;;;;;;6.02;100.00;92362.34;2487177;23;20046;-83
2023/03/13 05:01:39;;;;;;;3.80;1.30;;;;;;;5.92;100.00;92365.91;2450820;24;20313;-83
2023/03/13 05:03:13;;;;;;;4.10;3.47;;;;;;;5.91;100.00;92357.16;2439190;24;20010;-83
2023/03/13 05:04:45;;;;;;;3.95;2.60;;;;;;;6.04;100.00;92366.06;2490031;23;20511;-83
2023/03/13 05:06:10;;;;;;;3.50;1.48;;;;;;;6.03;100.00;92366.47;2493494;23;20011;-83
2023/03/13 05:07:22;;;;;;;4.88;1.10;;;;;;;6.00;100.00;92360.06;2476715;23;20015;-81
2023/03/13 05:08:53;;;;;;;2.15;1.23;;;;;;;6.15;100.00;92362.50;2466291;23;20458;-83
2023/03/13 05:10:11;;;;;;;4.65;2.65;;;;;;;6.02;100.00;92365.72;2490648;23;20015;-84
2023/03/13 05:12:06;;;;;;;3.75;1.48;;;;;;;6.33;100.00;92362.94;2495215;23;20097;-83
2023/03/13 05:13:20;;;;;;;11.80;8.85;;;;;;;6.34;100.00;92369.72;2513546;23;20364;-84
2023/03/13 05:14:59;;;;;;;2.50;0.90;;;;;;;6.40;100.00;92360.13;2519826;23;20010;-83
2023/03/13 05:18:20;;;;;;;10.18;5.18;;;;;;;6.27;100.00;92361.88;2497830;23;20014;-83
2023/03/13 05:19:53;;;;;;;5.03;2.70;;;;;;;6.40;100.00;92362.78;2501582;23;20137;-84
2023/03/13 05:21:42;;;;;;;3.42;1.80;;;;;;;6.30;100.00;92361.81;2492219;23;20030;-85
2023/03/13 05:23:03;;;;;;;3.15;1.05;;;;;;;6.34;100.00;92359.13;2490756;23;20033;-84
2023/03/13 05:24:17;;;;;;;11.38;5.97;;;;;;;6.29;100.00;92352.38;2497010;23;20045;-84
2023/03/13 05:25:29;;;;;;;2.42;0.70;;;;;;;6.43;100.00;92350.63;2510706;23;20442;-83
2023/03/13 05:26:43;;;;;;;2.15;0.90;;;;;;;6.67;100.00;92353.94;2498079;23;20035;-84
2023/03/13 05:28:14;;;;;;;0.75;0.40;;;;;;;7.09;100.00;92364.88;2493189;23;20446;-83
2023/03/13 05:29:49;;;;;;;1.95;0.50;;;;;;;6.97;100.00;92359.03;2489610;23;20062;-84
2023/03/13 05:31:28;;;;;;;0.80;0.60;;;;;;;7.08;100.00;92364.13;2515385;23;20326;-84
2023/03/13 05:35:39;;;;;;;0.68;0.50;;;;;;;7.14;100.00;92359.06;2498377;23;20489;-83
2023/03/13 05:37:05;;;;;;;0.68;0.55;;;;;;;7.26;100.00;92367.16;2521324;23;20082;-83
2023/03/13 05:38:39;;;;;;;0.60;0.60;;;;;;;7.37;100.00;92360.84;2509215;23;20145;-84
2023/03/13 05:39:48;;;;;;;1.30;0.57;;;;;;;7.39;100.00;92369.94;2502976;23;20015;-83
2023/03/13 05:40:59;;;;;;;0.40;0.40;;;;;;;7.36;100.00;92370.75;2509287;23;20029;-83
2023/03/13 05:42:38;;;;;;;1.33;0.43;;;;;;;7.48;100.00;92370.09;2497024;23;20362;-85
2023/03/13 05:44:10;;;;;;;1.55;0.60;;;;;;;7.38;100.00;92362.38;2499535;23;20017;-84
2023/03/13 05:45:52;;;;;;;1.02;1.00;;;;;;;7.39;100.00;92369.19;2495427;23;20435;-83
2023/03/13 05:47:32;;;;;;;;;;;;;;;;;;;;;
2023/03/13 05:48:58;;;;;;;0.55;0.50;;;;;;;7.28;100.00;92372.81;2508565;23;20429;-83
2023/03/13 05:50:39;;;;;;;1.00;0.50;;;;;;;7.31;100.00;92371.25;2497639;23;20007;-84
2023/03/13 05:52:11;;;;;;;0.93;0.50;;;;;;;7.28;100.00;92366.75;2504233;23;20039;-83
2023/03/13 05:53:28;;;;;;;0.50;0.50;;;;;;;7.31;100.00;92352.63;2499975;23;20023;-83
2023/03/13 05:55:11;;;;;;;0.30;0.30;;;;;;;7.92;100.00;92351.25;2472465;24;19997;-84
2023/03/13 05:56:52;;;;;;;0.75;0.50;;;;;;;7.72;100.00;92341.44;2505234;23;19995;-83
2023/03/13 05:58:08;;;;;;;1.80;0.40;;;;;;;7.95;100.00;92337.13;2496075;23;20499;-81
2023/03/13 05:59:52;;;;;;;0.22;0.20;;;;;;;7.86;100.00;92319.09;2496314;23;20755;-82
2023/03/13 06:01:19;;;;;;;0.77;0.35;;;;;;;8.29;100.00;92326.72;2485948;23;20402;-84
2023/03/13 06:02:23;;;;;;;1.73;0.38;;;;;;;8.26;100.00;92326.84;2503027;23;20030;-84
2023/03/13 06:06:07;;;;;;;0.30;0.30;;;;;;;7.98;100.00;92336.28;2505476;23;19998;-85
2023/03/13 06:07:40;;;;;;;0.20;0.20;;;;;;;8.15;100.00;92334.34;2510005;23;20006;-84
2023/03/13 06:09:02;;;;;;;0.43;0.20;;;;;;;8.08;100.00;92338.69;2497729;23;20007;-84
2023/03/13 06:10:19;;;;;;;0.20;0.20;;;;;;;8.35;100.00;92334.97;2491523;23;20057;-84
2023/03/13 06:11:38;;;;;;;0.22;0.20;;;;;;;8.37;100.00;92345.22;2474381;23;20866;-84
2023/03/13 06:12:52;;;;;;;1.75;0.65;;;;;;;8.13;100.00;92339.34;2497283;23;20380;-82
2023/03/13 06:14:22;;;;;;;0.30;0.30;;;;;;;8.08;100.00;92338.69;2494888;23;20007;-85
2023/03/13 06:17:26;;;;;;;4.05;2.80;;;;;;;8.11;100.00;92346.97;2503826;23;20077;-83
2023/03/13 06:18:47;;;;;;;1.17;0.60;;;;;;;8.21;100.00;92330.00;2487396;23;20008;-85
2023/03/13 06:19:56;;;;;;;0.45;0.45;;;;;;;8.12;100.00;92325.28;2494996;23;20003;-83
2023/03/13 06:21:06;;;;;;;0.75;0.40;;;;;;;8.23;100.00;92349.72;2485635;23;20007;-84
2023/03/13 06:22:31;;;;;;;1.38;0.40;;;;;;;8.32;100.00;92346.44;2487373;23;20035;-83
2023/03/13 06:23:44;;;;;;;0.40;0.40;;;;;;;8.25;100.00;92338.63;2493204;23;20006;-83
2023/03/13 06:25:10;;;;;;;0.77;0.50;;;;;;;8.24;100.00;92342.47;2496116;23;20007;-83
2023/03/13 06:26:23;;;;;;;0.68;0.40;;;;;;;8.16;100.00;92338.47;2505616;23;20007;-85
2023/03/13 06:27:36;;;;;;;1.75;0.77;;;;;;;8.51;100.00;92352.81;2508187;23;20434;-84
2023/03/13 06:30:13;;;;;;;0.63;0.40;;;;;;;8.48;100.00;92333.13;2476545;23;20404;-83
2023/03/13 06:31:54;;;;;;;1.33;0.60;;;;;;;8.43;100.00;92346.97;2496837;23;20011;-85
2023/03/13 06:33:11;;;;;;;0.65;0.40;;;;;;;8.63;100.00;92344.13;2508246;23;20007;-83
2023/03/13 06:35:12;;;;;;;1.10;0.45;;;;;;;8.61;100.00;92359.81;2508377;23;20081;-83
2023/03/13 06:36:29;;;;;;;1.08;0.50;;;;;;;8.51;100.00;92334.94;2507979;23;20031;-84
2023/03/13 06:37:36;;;;;;;0.43;0.32;;;;;;;8.75;100.00;92334.69;2508042;23;20633;-84
2023/03/13 06:39:04;;;;;;;0.43;0.30;;;;;;;8.89;100.00;92341.53;2508327;23;20034;-83
2023/03/13 06:40:12;;;;;;;0.47;0.30;;;;;;;8.87;100.00;92327.88;2507785;23;20011;-83
2023/03/13 06:41:28;;;;;;;0.30;0.30;;;;;;;8.80;100.00;92324.25;2508935;23;20734;-85
2023/03/13 06:42:34;;;;;;;0.88;0.45;;;;;;;8.79;100.00;92343.34;2496395;23;20012;-84
2023/03/13 06:43:39;;;;;;;0.40;0.40;;;;;;;8.80;100.00;92331.50;2485967;23;20051;-85
2023/03/13 06:44:50;;;;;;;0.75;0.50;;;;;;;8.73;100.00;92340.44;2499008;23;20110;-84
2023/03/13 06:46:05;;;;;;;;;;;;;;;;;;;;;
2023/03/13 06:47:33;;;;;;;0.85;0.50;;;;;;;8.80;100.00;92320.84;2509159;23;20007;-82
2023/03/13 06:50:20;;;;;;;0.88;0.50;;;;;;;8.97;100.00;92324.19;2497629;23;20029;-84
2023/03/13 06:51:52;;;;;;;0.50;0.50;;;;;;;8.84;100.00;92318.84;2493243;23;20022;-83
2023/03/13 06:53:21;;;;;;;1.00;0.52;;;;;;;8.75;100.00;92319.44;2498760;23;20022;-84
2023/03/13 06:57:00;;;;;;;0.82;0.50;;;;;;;9.08;100.00;92317.34;2484687;23;20004;-84
2023/03/13 06:58:07;;;;;;;1.90;0.50;;;;;;;8.98;100.00;92310.44;2491051;23;20030;-84
2023/03/13 06:59:20;;;;;;;1.35;0.60;;;;;;;8.91;100.00;92318.63;2486027;23;20019;-83
2023/03/13 07:00:29;;;;;;;0.52;0.35;;;;;;;8.91;100.00;92321.31;2477207;23;20357;-84
2023/03/13 07:01:38;;;;;;;0.50;0.50;;;;;;;8.83;100.00;92320.00;2500053;23;20544;-83
2023/03/13 07:02:47;;;;;;;0.45;0.40;;;;;;;8.93;100.00;92331.53;2496964;23;20311;-83
2023/03/13 07:03:49;;;;;;;0.40;0.40;;;;;;;9.01;100.00;92325.56;2487638;23;20522;-84
2023/03/13 07:04:55;;;;;;;0.90;0.50;;;;;;;8.95;100.00;92316.59;2508397;23;20014;-83
2023/03/13 07:06:07;;;;;;;1.92;0.60;;;;;;;9.02;100.00;92318.31;2509425;23;20334;-83
2023/03/13 07:07:17;;;;;;;0.98;0.32;;;;;;;9.17;100.00;92323.97;2508812;23;20449;-83
2023/03/13 07:08:18;;;;;;;1.15;0.40;;;;;;;9.36;100.00;92316.97;2509949;23;20006;-83
2023/03/13 07:09:22;;;;;;;0.40;0.40;;;;;;;9.21;100.00;92327.28;2497705;23;20058;-82
2023/03/13 07:10:32;;;;;;;3.65;0.55;;;;;;;9.16;100.00;92335.81;2486721;23;20015;-84
2023/03/13 07:11:36;;;;;;;0.50;0.30;;;;;;;9.21;100.00;92332.63;2487785;23;20364;-84
2023/03/13 07:12:40;;;;;;;0.47;0.47;;;;;;;9.30;100.00;92338.06;2486174;23;20003;-85
2023/03/13 07:13:41;;;;;;;0.75;0.57;;;;;;;9.32;100.00;92341.06;2498360;23;20026;-84
2023/03/13 07:15:04;;;;;;;0.80;0.60;;;;;;;9.16;100.00;92335.81;2497889;23;20003;-85
2023/03/13 07:16:17;;;;;;;2.88;0.50;;;;;;;9.19;100.00;92354.38;2495671;23;20033;-83
2023/03/13 07:17:21;;;;;;;0.35;0.30;;;;;;;9.22;100.00;92342.13;2496752;23;20027;-84
2023/03/13 07:20:38;;;;;;;1.52;0.50;;;;;;;9.17;100.00;92345.31;2507437;23;20379;-84
2023/03/13 07:21:51;;;;;;;0.90;0.35;;;;;;;9.14;100.00;92365.59;2507296;23;20010;-83
2023/03/13 07:23:06;;;;;;;2.13;1.90;;;;;;;9.12;100.00;92348.50;2497373;23;20311;-83
2023/03/13 07:24:16;;;;;;;1.00;0.60;;;;;;;9.16;100.00;92368.56;2478590;23;20076;-84
2023/03/13 07:25:21;;;;;;;0.43;0.43;;;;;;;9.03;100.00;92367.78;2478181;23;20004;-83
2023/03/13 07:26:49;;;;;;;1.35;0.38;;;;;;;8.93;100.00;92366.94;2481987;23;20003;-83
2023/03/13 07:28:02;;;;;;;1.10;0.40;;;;;;;9.01;100.00;92365.56;2481307;23;20008;-83
2023/03/13 07:29:11;;;;;;;0.60;0.60;;;;;;;9.00;100.00;92363.31;2478700;23;20048;-85
2023/03/13 07:30:40;;;;;;;1.27;0.70;;;;;;;8.91;100.00;92377.28;2495925;23;20367;-85
2023/03/13 07:31:51;;;;;;;0.90;0.60;;;;;;;9.06;100.00;92367.69;2509218;23;20011;-83
2023/03/13 07:33:05;;;;;;;0.43;0.20;;;;;;;9.37;100.00;92369.13;2499505;23;20063;-82
2023/03/13 07:34:19;;;;;;;0.70;0.70;;;;;;;9.14;100.00;92349.59;2488331;23;20023;-83
2023/03/13 07:35:49;;;;;;;1.13;0.30;;;;;;;9.02;100.00;92356.38;2491213;23;20004;-84
2023/03/13 07:37:15;;;;;;;0.28;0.28;;;;;;;9.14;100.00;92356.84;2503229;23;20042;-83
2023/03/13 07:38:30;;;;;;;0.40;0.30;;;;;;;9.02;100.00;92353.72;2490188;23;20018;-84
2023/03/13 07:40:13;;;;;;;;;;;;;;;;;;;;;
2023/03/13 07:41:55;;;;;;;0.90;0.57;;;;;;;8.89;100.00;92344.94;2503566;23;20041;-84
2023/03/13 07:43:02;;;;;;;2.38;1.00;;;;;;;9.10;100.00;92346.28;2496903;23;20110;-83
2023/03/13 07:44:59;;;;;;;0.73;0.60;;;;;;;8.97;100.00;92348.91;2490782;23;20007;-85
2023/03/13 07:46:21;;;;;;;2.25;1.02;;;;;;;9.29;100.00;92356.00;2509535;23;20007;-85
2023/03/13 07:50:09;;;;;;;1.05;0.60;;;;;;;9.17;100.00;92338.06;2508074;23;20006;-85
2023/03/13 07:51:22;;;;;;;0.50;0.40;;;;;;;9.23;100.00;92343.63;2508179;23;20010;-85
2023/03/13 07:52:25;;;;;;;0.88;0.60;;;;;;;9.42;100.00;92345.34;2507797;23;20419;-86
2023/03/13 07:54:19;;;;;;;1.88;0.70;;;;;;;9.31;100.00;92331.59;2487959;23;20530;-84
2023/03/13 07:55:34;;;;;;;2.03;0.60;;;;;;;9.53;100.00;92343.09;2505321;23;20009;-83
2023/03/13 08:00:16;;;;;;;1.50;0.70;;;;;;;9.32;100.00;92333.06;2521097;23;20014;-83
2023/03/13 08:01:23;;;;;;;1.77;0.60;;;;;;;9.24;100.00;92326.44;2509568;23;20125;-83